createdAt,value
2022-08-26T00:00:29.509Z,53.9
2022-08-26T00:01:29.023Z,53.9
2022-08-26T00:02:27.577Z,53.8
2022-08-26T00:03:27.366Z,54.1
2022-08-26T00:04:27.409Z,53.9
2022-08-26T00:05:27.368Z,54.2
2022-08-26T00:06:27.372Z,54.2
2022-08-26T00:07:27.442Z,55
2022-08-26T00:08:27.371Z,56
2022-08-26T00:09:27.387Z,59.1
2022-08-26T00:10:27.381Z,65.2
2022-08-26T00:11:27.386Z,69.9
2022-08-26T00:12:35.904Z,72.9
2022-08-26T00:13:27.369Z,75.8
2022-08-26T00:14:31.042Z,77.9
2022-08-26T00:15:27.372Z,79.7
2022-08-26T00:16:27.446Z,81.8
2022-08-26T00:17:27.426Z,83.7
2022-08-26T00:18:27.376Z,84.9
2022-08-26T00:19:27.373Z,85.6
2022-08-26T00:20:27.547Z,85.1
2022-08-26T00:21:27.417Z,84
2022-08-26T00:22:27.378Z,82.4
2022-08-26T00:23:28.939Z,79.6
2022-08-26T00:24:27.374Z,77.3
2022-08-26T00:25:27.383Z,75.9
2022-08-26T00:26:28.440Z,75.5
2022-08-26T00:27:27.438Z,74.4
2022-08-26T00:28:27.419Z,73.5
2022-08-26T00:29:27.376Z,71.6
2022-08-26T00:30:27.377Z,70.5
2022-08-26T00:31:27.433Z,69.8
2022-08-26T00:32:27.451Z,68.8
2022-08-26T00:33:27.371Z,68.4
2022-08-26T00:34:27.417Z,68.3
2022-08-26T00:35:27.959Z,68.1
2022-08-26T00:36:29.514Z,68.2
2022-08-26T00:37:27.385Z,68.6
2022-08-26T00:38:27.373Z,69.3
2022-08-26T00:39:27.385Z,70.1
2022-08-26T00:40:27.506Z,70.2
2022-08-26T00:41:27.449Z,71.2
2022-08-26T00:42:27.370Z,72.4
2022-08-26T00:43:27.427Z,73.4
2022-08-26T00:44:27.379Z,74.1
2022-08-26T00:45:27.455Z,74.8
2022-08-26T00:46:27.615Z,75.6
2022-08-26T00:47:27.363Z,76.4
2022-08-26T00:48:27.448Z,77.2
2022-08-26T00:49:27.396Z,77.8
2022-08-26T00:50:27.448Z,78.2
2022-08-26T00:51:29.799Z,79
2022-08-26T00:52:27.387Z,79.6
2022-08-26T00:53:27.949Z,80.2
2022-08-26T00:54:27.439Z,80.6
2022-08-26T00:55:27.541Z,80.9
2022-08-26T00:56:27.387Z,81.6
2022-08-26T00:57:27.380Z,82.1
2022-08-26T00:58:27.401Z,83
2022-08-26T00:59:27.380Z,83.3
2022-08-26T01:00:27.390Z,83.9
2022-08-26T01:01:27.419Z,84
2022-08-26T01:02:27.476Z,84.3
2022-08-26T01:03:27.394Z,85
2022-08-26T01:04:27.399Z,85.3
2022-08-26T01:05:27.392Z,85.1
2022-08-26T01:06:27.451Z,85.3
2022-08-26T01:07:30.312Z,85.7
2022-08-26T01:08:27.471Z,86.5
2022-08-26T01:09:27.439Z,86.8
2022-08-26T01:10:27.394Z,87.4
2022-08-26T01:11:27.387Z,87.6
2022-08-26T01:12:27.439Z,88
2022-08-26T01:13:27.395Z,88.1
2022-08-26T01:14:27.397Z,88.4
2022-08-26T01:15:27.440Z,88.7
2022-08-26T01:16:27.490Z,88.9
2022-08-26T01:17:27.387Z,89.2
2022-08-26T01:18:27.409Z,89.3
2022-08-26T01:19:27.387Z,89.5
2022-08-26T01:20:27.391Z,89.9
2022-08-26T01:21:27.392Z,90
2022-08-26T01:22:28.655Z,90.5
2022-08-26T01:23:27.404Z,90.7
2022-08-26T01:24:27.400Z,91.5
2022-08-26T01:25:27.399Z,92.1
2022-08-26T01:26:27.394Z,92.3
2022-08-26T01:27:27.443Z,92.6
2022-08-26T01:28:27.411Z,93.2
2022-08-26T01:29:27.432Z,93.9
2022-08-26T01:30:27.386Z,94.3
2022-08-26T01:31:27.493Z,95
2022-08-26T01:32:27.404Z,95.4
2022-08-26T01:33:27.382Z,95.9
2022-08-26T01:34:27.404Z,96.3
2022-08-26T01:35:27.392Z,96.8
2022-08-26T01:36:27.450Z,97.2
2022-08-26T01:37:27.398Z,97.6
2022-08-26T01:38:27.436Z,99.1
2022-08-26T01:39:27.405Z,99.7
2022-08-26T01:40:27.499Z,100
2022-08-26T01:41:29.140Z,100
2022-08-26T01:42:27.403Z,100
2022-08-26T01:43:27.461Z,100
2022-08-26T01:44:27.390Z,100
2022-08-26T01:45:27.577Z,100
2022-08-26T01:46:27.381Z,100
2022-08-26T01:47:27.385Z,100
2022-08-26T01:48:27.394Z,100
2022-08-26T01:49:27.383Z,100
2022-08-26T01:50:28.006Z,100
2022-08-26T01:51:27.405Z,100
2022-08-26T01:52:28.010Z,100
2022-08-26T01:53:27.392Z,100
2022-08-26T01:54:27.397Z,100
2022-08-26T01:55:33.062Z,100
2022-08-26T01:56:33.274Z,100
2022-08-26T01:57:27.485Z,100
2022-08-26T01:58:27.401Z,100
2022-08-26T01:59:27.408Z,100
2022-08-26T02:00:27.435Z,100
2022-08-26T02:01:28.919Z,100
2022-08-26T02:02:27.427Z,100
2022-08-26T02:03:27.506Z,100
2022-08-26T02:04:27.514Z,100
2022-08-26T02:05:27.416Z,100
2022-08-26T02:06:27.421Z,100
2022-08-26T02:07:27.409Z,100
2022-08-26T02:08:27.410Z,100
2022-08-26T02:09:27.395Z,100
2022-08-26T02:10:27.482Z,100
2022-08-26T02:11:27.434Z,100
2022-08-26T02:12:27.391Z,100
2022-08-26T02:13:27.503Z,100
2022-08-26T02:14:29.500Z,100
2022-08-26T02:15:27.391Z,100
2022-08-26T02:16:27.504Z,100
2022-08-26T02:17:27.439Z,100
2022-08-26T02:18:27.395Z,100
2022-08-26T02:19:27.400Z,100
2022-08-26T02:20:27.418Z,100
2022-08-26T02:21:27.393Z,100
2022-08-26T02:22:27.479Z,100
2022-08-26T02:23:27.403Z,100
2022-08-26T02:24:27.809Z,100
2022-08-26T02:25:27.411Z,100
2022-08-26T02:26:27.405Z,100
2022-08-26T02:27:28.175Z,100
2022-08-26T02:28:27.404Z,100
2022-08-26T02:29:27.407Z,100
2022-08-26T02:30:27.429Z,100
2022-08-26T02:31:27.521Z,100
2022-08-26T02:32:27.437Z,100
2022-08-26T02:33:27.654Z,100
2022-08-26T02:34:28.240Z,100
2022-08-26T02:35:27.696Z,100
2022-08-26T02:36:28.387Z,100
2022-08-26T02:37:27.393Z,100
2022-08-26T02:38:27.482Z,100
2022-08-26T02:39:27.408Z,100
2022-08-26T02:40:27.614Z,100
2022-08-26T02:41:27.401Z,100
2022-08-26T02:42:27.410Z,100
2022-08-26T02:43:32.856Z,100
2022-08-26T02:44:27.405Z,100
2022-08-26T02:45:27.473Z,100
2022-08-26T02:46:29.874Z,100
2022-08-26T02:47:28.898Z,100
2022-08-26T02:48:27.409Z,100
2022-08-26T02:49:27.401Z,100
2022-08-26T02:50:27.429Z,100
2022-08-26T02:51:27.420Z,100
2022-08-26T02:52:27.466Z,100
2022-08-26T02:53:27.424Z,100
2022-08-26T02:54:27.412Z,100
2022-08-26T02:55:27.461Z,100
2022-08-26T02:56:27.409Z,100
2022-08-26T02:57:27.408Z,100
2022-08-26T02:58:27.469Z,100
2022-08-26T02:59:27.455Z,100
2022-08-26T03:00:27.454Z,100
2022-08-26T03:01:27.541Z,100
2022-08-26T03:02:27.507Z,100
2022-08-26T03:03:27.405Z,100
2022-08-26T03:04:27.414Z,100
2022-08-26T03:05:27.485Z,100
2022-08-26T03:06:27.448Z,100
2022-08-26T03:07:27.407Z,100
2022-08-26T03:08:27.606Z,100
2022-08-26T03:09:27.407Z,100
2022-08-26T03:10:27.415Z,100
2022-08-26T03:11:32.243Z,100
2022-08-26T03:12:27.444Z,100
2022-08-26T03:13:27.424Z,100
2022-08-26T03:14:27.410Z,100
2022-08-26T03:15:27.412Z,100
2022-08-26T03:16:32.508Z,100
2022-08-26T03:17:27.468Z,100
2022-08-26T03:18:27.423Z,100
2022-08-26T03:19:27.450Z,100
2022-08-26T03:20:27.440Z,100
2022-08-26T03:21:29.515Z,100
2022-08-26T03:22:27.500Z,100
2022-08-26T03:23:27.415Z,100
2022-08-26T03:24:27.487Z,100
2022-08-26T03:25:27.409Z,100
2022-08-26T03:26:27.519Z,100
2022-08-26T03:27:27.411Z,100
2022-08-26T03:28:27.427Z,100
2022-08-26T03:29:27.407Z,100
2022-08-26T03:30:27.422Z,100
2022-08-26T03:31:27.445Z,100
2022-08-26T03:32:27.418Z,100
2022-08-26T03:33:27.474Z,100
2022-08-26T03:34:27.407Z,100
2022-08-26T03:35:27.517Z,100
2022-08-26T03:36:27.580Z,100
2022-08-26T03:37:27.415Z,100
2022-08-26T03:38:27.411Z,100
2022-08-26T03:39:27.413Z,100
2022-08-26T03:40:29.092Z,100
2022-08-26T03:41:27.408Z,100
2022-08-26T03:42:27.434Z,100
2022-08-26T03:43:27.421Z,100
2022-08-26T03:44:27.416Z,100
2022-08-26T03:45:27.417Z,100
2022-08-26T03:46:27.454Z,100
2022-08-26T03:47:27.484Z,100
2022-08-26T03:48:27.417Z,100
2022-08-26T03:49:29.024Z,100
2022-08-26T03:50:27.437Z,100
2022-08-26T03:51:27.408Z,100
2022-08-26T03:52:27.436Z,100
2022-08-26T03:53:27.461Z,100
2022-08-26T03:54:27.460Z,100
2022-08-26T03:55:27.419Z,100
2022-08-26T03:56:27.422Z,100
2022-08-26T03:57:27.420Z,100
2022-08-26T03:58:27.415Z,100
2022-08-26T03:59:27.410Z,100
2022-08-26T04:00:27.459Z,100
2022-08-26T04:01:27.503Z,100
2022-08-26T04:02:27.443Z,100
2022-08-26T04:03:27.500Z,100
2022-08-26T04:04:27.419Z,100
2022-08-26T04:05:27.456Z,100
2022-08-26T04:06:27.421Z,100
2022-08-26T04:07:27.450Z,100
2022-08-26T04:08:28.126Z,100
2022-08-26T04:09:27.427Z,100
2022-08-26T04:10:29.200Z,100
2022-08-26T04:11:27.418Z,100
2022-08-26T04:12:27.574Z,100
2022-08-26T04:13:27.423Z,100
2022-08-26T04:14:27.459Z,100
2022-08-26T04:15:27.478Z,100
2022-08-26T04:16:27.495Z,100
2022-08-26T04:17:27.409Z,100
2022-08-26T04:18:30.317Z,100
2022-08-26T04:19:27.410Z,100
2022-08-26T04:20:27.439Z,100
2022-08-26T04:21:27.504Z,100
2022-08-26T04:22:27.426Z,100
2022-08-26T04:23:27.467Z,100
2022-08-26T04:24:27.876Z,100
2022-08-26T04:25:27.614Z,100
2022-08-26T04:26:27.623Z,100
2022-08-26T04:27:27.438Z,100
2022-08-26T04:28:29.643Z,100
2022-08-26T04:29:27.423Z,100
2022-08-26T04:30:27.530Z,100
2022-08-26T04:31:27.461Z,100
2022-08-26T04:32:27.417Z,100
2022-08-26T04:33:32.456Z,100
2022-08-26T04:34:28.641Z,100
2022-08-26T04:35:27.504Z,100
2022-08-26T04:36:27.420Z,100
2022-08-26T04:37:27.446Z,100
2022-08-26T04:38:27.431Z,100
2022-08-26T04:39:27.626Z,100
2022-08-26T04:40:27.644Z,100
2022-08-26T04:41:27.414Z,100
2022-08-26T04:42:27.503Z,100
2022-08-26T04:43:27.423Z,100
2022-08-26T04:44:27.422Z,100
2022-08-26T04:45:27.492Z,100
2022-08-26T04:46:27.509Z,100
2022-08-26T04:47:31.771Z,100
2022-08-26T04:48:27.520Z,100
2022-08-26T04:49:27.626Z,100
2022-08-26T04:50:27.442Z,100
2022-08-26T04:51:28.110Z,100
2022-08-26T04:52:27.425Z,100
2022-08-26T04:53:27.416Z,100
2022-08-26T04:54:27.422Z,100
2022-08-26T04:55:38.411Z,100
2022-08-26T04:56:27.470Z,100
2022-08-26T04:57:27.429Z,100
2022-08-26T04:58:27.427Z,100
2022-08-26T04:59:27.428Z,100
2022-08-26T05:00:27.428Z,100
2022-08-26T05:01:27.582Z,100
2022-08-26T05:02:27.466Z,100
2022-08-26T05:03:30.361Z,100
2022-08-26T05:04:27.492Z,100
2022-08-26T05:05:27.434Z,100
2022-08-26T05:06:27.445Z,100
2022-08-26T05:07:27.713Z,100
2022-08-26T05:08:27.423Z,100
2022-08-26T05:09:27.452Z,100
2022-08-26T05:10:27.449Z,100
2022-08-26T05:11:27.426Z,100
2022-08-26T05:12:27.443Z,100
2022-08-26T05:13:27.435Z,100
2022-08-26T05:14:27.428Z,100
2022-08-26T05:15:27.430Z,100
2022-08-26T05:16:27.595Z,100
2022-08-26T05:17:27.436Z,100
2022-08-26T05:18:27.484Z,100
2022-08-26T05:19:27.963Z,100
2022-08-26T05:20:27.441Z,100
2022-08-26T05:21:27.436Z,100
2022-08-26T05:22:27.423Z,100
2022-08-26T05:23:27.514Z,100
2022-08-26T05:24:27.441Z,100
2022-08-26T05:25:27.550Z,100
2022-08-26T05:26:27.441Z,100
2022-08-26T05:27:27.423Z,100
2022-08-26T05:28:27.441Z,100
2022-08-26T05:29:27.444Z,100
2022-08-26T05:30:27.493Z,100
2022-08-26T05:31:27.500Z,100
2022-08-26T05:32:27.431Z,100
2022-08-26T05:33:27.429Z,100
2022-08-26T05:34:30.022Z,100
2022-08-26T05:35:29.538Z,100
2022-08-26T05:36:27.427Z,100
2022-08-26T05:37:27.488Z,100
2022-08-26T05:38:30.215Z,100
2022-08-26T05:39:27.437Z,100
2022-08-26T05:40:27.503Z,100
2022-08-26T05:41:27.443Z,100
2022-08-26T05:42:27.438Z,100
2022-08-26T05:43:27.475Z,100
2022-08-26T05:44:27.493Z,100
2022-08-26T05:45:27.442Z,100
2022-08-26T05:46:27.507Z,100
2022-08-26T05:47:27.460Z,100
2022-08-26T05:48:27.440Z,100
2022-08-26T05:49:27.450Z,100
2022-08-26T05:50:27.494Z,100
2022-08-26T05:51:27.477Z,100
2022-08-26T05:52:27.439Z,100
2022-08-26T05:53:27.432Z,100
2022-08-26T05:54:27.434Z,100
2022-08-26T05:55:27.442Z,100
2022-08-26T05:56:27.585Z,100
2022-08-26T05:57:27.485Z,100
2022-08-26T05:58:27.516Z,100
2022-08-26T05:59:27.450Z,100
2022-08-26T06:00:27.550Z,100
2022-08-26T06:01:27.573Z,100
2022-08-26T06:02:27.515Z,100
2022-08-26T06:03:27.432Z,100
2022-08-26T06:04:28.076Z,100
2022-08-26T06:05:27.433Z,100
2022-08-26T06:06:28.154Z,100
2022-08-26T06:07:27.431Z,100
2022-08-26T06:08:27.474Z,100
2022-08-26T06:09:27.440Z,100
2022-08-26T06:10:33.559Z,100
2022-08-26T06:11:27.546Z,100
2022-08-26T06:12:27.431Z,100
2022-08-26T06:13:27.531Z,100
2022-08-26T06:14:27.447Z,100
2022-08-26T06:15:27.511Z,100
2022-08-26T06:16:27.550Z,100
2022-08-26T06:17:27.455Z,100
2022-08-26T06:18:27.522Z,100
2022-08-26T06:19:32.716Z,100
2022-08-26T06:20:27.500Z,100
2022-08-26T06:21:27.446Z,100
2022-08-26T06:22:27.447Z,100
2022-08-26T06:23:27.465Z,100
2022-08-26T06:24:27.545Z,100
2022-08-26T06:25:27.498Z,100
2022-08-26T06:26:27.444Z,100
2022-08-26T06:27:30.664Z,100
2022-08-26T06:28:27.455Z,100
2022-08-26T06:29:27.449Z,100
2022-08-26T06:30:27.441Z,100
2022-08-26T06:31:27.489Z,100
2022-08-26T06:32:27.488Z,100
2022-08-26T06:33:27.448Z,100
2022-08-26T06:34:29.865Z,100
2022-08-26T06:35:27.450Z,100
2022-08-26T06:36:27.449Z,100
2022-08-26T06:37:27.442Z,100
2022-08-26T06:38:27.497Z,100
2022-08-26T06:39:27.481Z,100
2022-08-26T06:40:27.561Z,100
2022-08-26T06:41:27.442Z,100
2022-08-26T06:42:29.576Z,100
2022-08-26T06:43:27.536Z,100
2022-08-26T06:44:27.491Z,100
2022-08-26T06:45:27.493Z,100
2022-08-26T06:46:27.671Z,100
2022-08-26T06:47:27.481Z,100
2022-08-26T06:48:27.528Z,100
2022-08-26T06:49:27.798Z,100
2022-08-26T06:50:27.503Z,100
2022-08-26T06:51:27.512Z,100
2022-08-26T06:52:27.636Z,100
2022-08-26T06:53:27.587Z,100
2022-08-26T06:54:27.625Z,100
2022-08-26T06:55:27.569Z,100
2022-08-26T06:56:27.634Z,100
2022-08-26T06:57:27.488Z,100
2022-08-26T06:58:27.468Z,100
2022-08-26T06:59:27.470Z,100
2022-08-26T07:00:27.445Z,100
2022-08-26T07:01:27.514Z,100
2022-08-26T07:02:28.695Z,100
2022-08-26T07:03:27.451Z,100
2022-08-26T07:04:27.939Z,100
2022-08-26T07:05:27.450Z,100
2022-08-26T07:06:27.513Z,100
2022-08-26T07:07:27.443Z,100
2022-08-26T07:08:27.499Z,100
2022-08-26T07:09:27.449Z,100
2022-08-26T07:10:27.445Z,100
2022-08-26T07:11:27.451Z,100
2022-08-26T07:12:27.448Z,100
2022-08-26T07:13:30.733Z,100
2022-08-26T07:14:27.459Z,100
2022-08-26T07:15:31.196Z,100
2022-08-26T07:16:27.461Z,100
2022-08-26T07:17:27.451Z,100
2022-08-26T07:18:27.465Z,100
2022-08-26T07:19:30.282Z,100
2022-08-26T07:20:27.504Z,100
2022-08-26T07:21:27.448Z,100
2022-08-26T07:22:27.442Z,100
2022-08-26T07:23:27.459Z,100
2022-08-26T07:24:28.506Z,100
2022-08-26T07:25:27.450Z,100
2022-08-26T07:26:27.506Z,100
2022-08-26T07:27:27.491Z,100
2022-08-26T07:28:27.446Z,100
2022-08-26T07:29:27.455Z,100
2022-08-26T07:30:27.466Z,100
2022-08-26T07:31:27.515Z,100
2022-08-26T07:32:27.450Z,100
2022-08-26T07:33:27.499Z,100
2022-08-26T07:34:27.521Z,100
2022-08-26T07:35:27.450Z,100
2022-08-26T07:36:27.464Z,100
2022-08-26T07:37:27.450Z,100
2022-08-26T07:38:27.449Z,100
2022-08-26T07:39:27.450Z,100
2022-08-26T07:40:27.577Z,100
2022-08-26T07:41:27.446Z,100
2022-08-26T07:42:27.448Z,100
2022-08-26T07:43:27.450Z,100
2022-08-26T07:44:27.458Z,100
2022-08-26T07:45:27.498Z,100
2022-08-26T07:46:30.179Z,100
2022-08-26T07:47:27.487Z,100
2022-08-26T07:48:27.456Z,100
2022-08-26T07:49:29.671Z,100
2022-08-26T07:50:48.796Z,100
2022-08-26T07:51:27.461Z,100
2022-08-26T07:52:27.678Z,100
2022-08-26T07:53:27.458Z,100
2022-08-26T07:54:27.474Z,100
2022-08-26T07:55:27.462Z,100
2022-08-26T07:56:27.455Z,100
2022-08-26T07:57:27.472Z,100
2022-08-26T07:58:27.455Z,100
2022-08-26T07:59:27.453Z,100
2022-08-26T08:00:27.448Z,100
2022-08-26T08:01:27.604Z,100
2022-08-26T08:02:27.462Z,100
2022-08-26T08:03:27.519Z,100
2022-08-26T08:04:27.459Z,100
2022-08-26T08:05:33.472Z,100
2022-08-26T08:06:28.250Z,100
2022-08-26T08:07:44.407Z,100
2022-08-26T08:08:29.059Z,100
2022-08-26T08:09:27.455Z,100
2022-08-26T08:10:27.476Z,100
2022-08-26T08:11:27.460Z,100
2022-08-26T08:12:27.457Z,100
2022-08-26T08:13:27.466Z,100
2022-08-26T08:14:27.444Z,100
2022-08-26T08:15:27.519Z,100
2022-08-26T08:16:27.497Z,100
2022-08-26T08:17:27.475Z,100
2022-08-26T08:18:27.470Z,100
2022-08-26T08:19:36.735Z,100
2022-08-26T08:20:27.466Z,100
2022-08-26T08:21:27.515Z,100
2022-08-26T08:22:27.508Z,100
2022-08-26T08:23:27.471Z,100
2022-08-26T08:24:27.463Z,100
2022-08-26T08:25:27.454Z,100
2022-08-26T08:26:27.476Z,100
2022-08-26T08:27:27.458Z,100
2022-08-26T08:28:27.507Z,100
2022-08-26T08:29:27.504Z,100
2022-08-26T08:30:27.473Z,100
2022-08-26T08:31:56.142Z,100
2022-08-26T08:32:27.456Z,100
2022-08-26T08:33:27.467Z,100
2022-08-26T08:34:27.477Z,100
2022-08-26T08:35:27.500Z,100
2022-08-26T08:36:27.460Z,100
2022-08-26T08:37:27.465Z,100
2022-08-26T08:38:27.484Z,100
2022-08-26T08:39:27.470Z,100
2022-08-26T08:40:27.561Z,100
2022-08-26T08:41:27.463Z,100
2022-08-26T08:42:27.511Z,100
2022-08-26T08:43:27.479Z,100
2022-08-26T08:45:27.475Z,100
2022-08-26T08:46:27.507Z,100
2022-08-26T08:47:27.478Z,100
2022-08-26T08:48:28.141Z,100
2022-08-26T08:49:27.831Z,100
2022-08-26T08:50:27.463Z,100
2022-08-26T08:51:27.799Z,100
2022-08-26T08:52:27.464Z,100
2022-08-26T08:53:27.456Z,100
2022-08-26T08:54:27.474Z,100
2022-08-26T08:55:27.459Z,100
2022-08-26T08:56:29.614Z,100
2022-08-26T08:57:27.481Z,100
2022-08-26T08:58:27.580Z,100
2022-08-26T08:59:27.496Z,100
2022-08-26T09:00:30.323Z,100
2022-08-26T09:01:27.540Z,100
2022-08-26T09:02:27.487Z,100
2022-08-26T09:03:27.523Z,100
2022-08-26T09:04:27.466Z,100
2022-08-26T09:05:27.480Z,100
2022-08-26T09:06:27.713Z,100
2022-08-26T09:07:27.498Z,100
2022-08-26T09:08:27.477Z,100
2022-08-26T09:09:27.560Z,100
2022-08-26T09:10:27.514Z,100
2022-08-26T09:11:27.471Z,100
2022-08-26T09:12:29.650Z,100
2022-08-26T09:13:27.606Z,100
2022-08-26T09:14:27.469Z,100
2022-08-26T09:15:30.160Z,100
2022-08-26T09:16:27.580Z,100
2022-08-26T09:17:27.522Z,100
2022-08-26T09:18:27.462Z,100
2022-08-26T09:19:27.476Z,100
2022-08-26T09:20:27.484Z,100
2022-08-26T09:21:27.477Z,100
2022-08-26T09:22:27.603Z,100
2022-08-26T09:23:27.542Z,100
2022-08-26T09:24:28.533Z,100
2022-08-26T09:25:27.528Z,100
2022-08-26T09:26:29.537Z,100
2022-08-26T09:27:27.474Z,100
2022-08-26T09:28:27.522Z,100
2022-08-26T09:29:27.477Z,100
2022-08-26T09:30:27.570Z,100
2022-08-26T09:31:27.609Z,100
2022-08-26T09:32:27.477Z,100
2022-08-26T09:33:27.478Z,100
2022-08-26T09:34:27.474Z,100
2022-08-26T09:35:27.496Z,100
2022-08-26T09:36:27.482Z,100
2022-08-26T09:37:27.553Z,100
2022-08-26T09:38:27.981Z,100
2022-08-26T09:39:27.545Z,100
2022-08-26T09:40:27.606Z,100
2022-08-26T09:41:27.474Z,100
2022-08-26T09:42:27.475Z,100
2022-08-26T09:43:27.474Z,100
2022-08-26T09:44:27.575Z,100
2022-08-26T09:45:27.470Z,100
2022-08-26T09:46:27.763Z,100
2022-08-26T09:47:27.473Z,100
2022-08-26T09:48:27.475Z,100
2022-08-26T09:49:27.471Z,100
2022-08-26T09:50:28.945Z,100
2022-08-26T09:51:27.544Z,100
2022-08-26T09:52:27.471Z,100
2022-08-26T09:53:30.405Z,100
2022-08-26T09:54:30.365Z,100
2022-08-26T09:55:27.484Z,100
2022-08-26T09:56:27.760Z,100
2022-08-26T09:57:27.479Z,100
2022-08-26T09:58:27.538Z,100
2022-08-26T09:59:27.481Z,100
2022-08-26T10:00:27.477Z,100
2022-08-26T10:01:27.501Z,100
2022-08-26T10:02:27.502Z,100
2022-08-26T10:03:31.459Z,100
2022-08-26T10:04:27.593Z,100
2022-08-26T10:05:27.579Z,100
2022-08-26T10:06:27.583Z,100
2022-08-26T10:07:27.476Z,100
2022-08-26T10:08:27.530Z,100
2022-08-26T10:09:28.140Z,100
2022-08-26T10:10:27.485Z,100
2022-08-26T10:11:27.531Z,100
2022-08-26T10:12:27.522Z,100
2022-08-26T10:13:29.486Z,100
2022-08-26T10:14:27.556Z,100
2022-08-26T10:15:27.473Z,100
2022-08-26T10:16:28.573Z,100
2022-08-26T10:17:27.492Z,100
2022-08-26T10:18:29.692Z,100
2022-08-26T10:19:41.795Z,100
2022-08-26T10:20:27.470Z,100
2022-08-26T10:21:27.472Z,100
2022-08-26T10:22:27.479Z,100
2022-08-26T10:23:27.612Z,100
2022-08-26T10:24:27.482Z,100
2022-08-26T10:25:27.509Z,100
2022-08-26T10:26:27.493Z,100
2022-08-26T10:27:27.517Z,100
2022-08-26T10:28:27.479Z,100
2022-08-26T10:29:27.552Z,100
2022-08-26T10:30:27.532Z,100
2022-08-26T10:31:28.279Z,100
2022-08-26T10:32:27.594Z,100
2022-08-26T10:33:27.493Z,100
2022-08-26T10:34:27.481Z,100
2022-08-26T10:35:27.503Z,100
2022-08-26T10:36:27.502Z,100
2022-08-26T10:37:27.480Z,100
2022-08-26T10:38:27.496Z,100
2022-08-26T10:39:27.562Z,100
2022-08-26T10:40:27.543Z,100
2022-08-26T10:41:27.551Z,100
2022-08-26T10:42:27.503Z,100
2022-08-26T10:43:27.491Z,100
2022-08-26T10:44:27.478Z,100
2022-08-26T10:45:27.629Z,100
2022-08-26T10:46:27.630Z,100
2022-08-26T10:47:27.492Z,100
2022-08-26T10:48:27.591Z,100
2022-08-26T10:49:27.489Z,100
2022-08-26T10:50:27.486Z,100
2022-08-26T10:51:27.483Z,100
2022-08-26T10:52:29.382Z,100
2022-08-26T10:53:27.547Z,100
2022-08-26T10:54:27.514Z,100
2022-08-26T10:55:27.493Z,100
2022-08-26T10:56:27.490Z,100
2022-08-26T10:57:27.501Z,100
2022-08-26T10:58:27.589Z,100
2022-08-26T10:59:28.912Z,100
2022-08-26T11:00:27.719Z,100
2022-08-26T11:01:27.547Z,100
2022-08-26T11:02:27.485Z,100
2022-08-26T11:03:27.545Z,100
2022-08-26T11:04:27.562Z,100
2022-08-26T11:05:27.530Z,100
2022-08-26T11:06:27.559Z,100
2022-08-26T11:07:27.533Z,100
2022-08-26T11:08:27.498Z,100
2022-08-26T11:09:28.833Z,100
2022-08-26T11:10:29.656Z,100
2022-08-26T11:11:27.498Z,100
2022-08-26T11:12:27.499Z,100
2022-08-26T11:13:27.535Z,100
2022-08-26T11:14:29.278Z,100
2022-08-26T11:15:27.500Z,100
2022-08-26T11:16:27.541Z,100
2022-08-26T11:17:27.521Z,100
2022-08-26T11:18:27.556Z,100
2022-08-26T11:19:36.251Z,100
2022-08-26T11:20:27.530Z,100
2022-08-26T11:21:27.500Z,100
2022-08-26T11:22:27.494Z,100
2022-08-26T11:23:27.500Z,100
2022-08-26T11:24:27.507Z,100
2022-08-26T11:25:30.800Z,100
2022-08-26T11:26:43.190Z,100
2022-08-26T11:27:27.561Z,100
2022-08-26T11:28:27.504Z,100
2022-08-26T11:29:27.527Z,100
2022-08-26T11:30:27.488Z,100
2022-08-26T11:31:27.604Z,100
2022-08-26T11:32:27.516Z,100
2022-08-26T11:33:27.492Z,100
2022-08-26T11:34:27.572Z,100
2022-08-26T11:35:27.499Z,100
2022-08-26T11:36:27.598Z,100
2022-08-26T11:37:27.560Z,100
2022-08-26T11:38:27.507Z,100
2022-08-26T11:39:27.514Z,100
2022-08-26T11:40:27.564Z,100
2022-08-26T11:41:27.564Z,100
2022-08-26T11:42:27.700Z,100
2022-08-26T11:43:29.877Z,100
2022-08-26T11:44:27.529Z,100
2022-08-26T11:45:28.220Z,100
2022-08-26T11:46:27.500Z,100
2022-08-26T11:47:27.511Z,100
2022-08-26T11:48:27.555Z,100
2022-08-26T11:49:27.509Z,100
2022-08-26T11:50:27.495Z,100
2022-08-26T11:51:27.536Z,100
2022-08-26T11:52:27.526Z,100
2022-08-26T11:53:27.515Z,100
2022-08-26T11:54:34.978Z,100
2022-08-26T11:55:27.542Z,100
2022-08-26T11:56:28.889Z,100
2022-08-26T11:57:27.506Z,100
2022-08-26T11:58:27.512Z,100
2022-08-26T11:59:27.529Z,100
2022-08-26T12:00:27.522Z,100
2022-08-26T12:01:27.544Z,100
2022-08-26T12:02:27.561Z,100
2022-08-26T12:03:27.612Z,100
2022-08-26T12:04:27.580Z,99.9
2022-08-26T12:05:29.529Z,100
2022-08-26T12:06:27.571Z,99
2022-08-26T12:07:27.519Z,100
2022-08-26T12:08:27.951Z,100
2022-08-26T12:09:27.522Z,100
2022-08-26T12:10:29.436Z,100
2022-08-26T12:11:27.492Z,100
2022-08-26T12:12:29.187Z,100
2022-08-26T12:13:27.572Z,100
2022-08-26T12:14:27.889Z,100
2022-08-26T12:15:27.547Z,100
2022-08-26T12:16:27.548Z,100
2022-08-26T12:17:29.676Z,100
2022-08-26T12:18:29.598Z,100
2022-08-26T12:19:27.628Z,100
2022-08-26T12:20:27.501Z,100
2022-08-26T12:21:27.531Z,100
2022-08-26T12:22:27.578Z,100
2022-08-26T12:23:27.521Z,100
2022-08-26T12:24:27.557Z,100
2022-08-26T12:25:27.525Z,100
2022-08-26T12:26:27.518Z,100
2022-08-26T12:27:27.501Z,100
2022-08-26T12:28:27.506Z,100
2022-08-26T12:29:27.601Z,100
2022-08-26T12:30:27.516Z,100
2022-08-26T12:31:27.630Z,100
2022-08-26T12:32:27.509Z,100
2022-08-26T12:33:27.519Z,100
2022-08-26T12:34:27.522Z,100
2022-08-26T12:35:27.520Z,100
2022-08-26T12:36:27.577Z,100
2022-08-26T12:37:27.527Z,100
2022-08-26T12:38:27.521Z,100
2022-08-26T12:39:27.519Z,100
2022-08-26T12:40:27.633Z,100
2022-08-26T12:41:27.597Z,100
2022-08-26T12:42:27.532Z,100
2022-08-26T12:43:27.571Z,100
2022-08-26T12:44:27.520Z,100
2022-08-26T12:45:27.566Z,100
2022-08-26T12:46:27.517Z,100
2022-08-26T12:47:35.199Z,100
2022-08-26T12:48:27.524Z,100
2022-08-26T12:49:27.570Z,100
2022-08-26T12:50:27.565Z,100
2022-08-26T12:51:27.557Z,99.4
2022-08-26T12:52:27.537Z,100
2022-08-26T12:53:27.518Z,100
2022-08-26T12:54:27.530Z,100
2022-08-26T12:55:27.522Z,100
2022-08-26T12:56:27.557Z,100
2022-08-26T12:57:27.562Z,98.9
2022-08-26T12:58:27.533Z,99.6
2022-08-26T12:59:27.533Z,100
2022-08-26T13:00:28.454Z,100
2022-08-26T13:01:27.641Z,100
2022-08-26T13:02:27.509Z,100
2022-08-26T13:03:27.570Z,100
2022-08-26T13:04:27.527Z,100
2022-08-26T13:05:27.519Z,99.5
2022-08-26T13:06:27.538Z,99.5
2022-08-26T13:07:27.515Z,99.5
2022-08-26T13:08:27.542Z,99.9
2022-08-26T13:09:27.543Z,98.2
2022-08-26T13:10:30.985Z,97.2
2022-08-26T13:11:27.533Z,96.3
2022-08-26T13:12:27.545Z,93.8
2022-08-26T13:13:27.543Z,93.6
2022-08-26T13:14:27.533Z,92.7
2022-08-26T13:15:27.534Z,92.8
2022-08-26T13:16:27.574Z,93.5
2022-08-26T13:17:27.562Z,94.3
2022-08-26T13:18:27.529Z,94.9
2022-08-26T13:19:27.579Z,94.7
2022-08-26T13:20:27.522Z,95
2022-08-26T13:21:27.536Z,96.6
2022-08-26T13:22:27.569Z,97.5
2022-08-26T13:23:27.540Z,98.5
2022-08-26T13:24:29.651Z,100
2022-08-26T13:25:27.535Z,100
2022-08-26T13:26:27.548Z,100
2022-08-26T13:27:27.538Z,100
2022-08-26T13:28:27.535Z,100
2022-08-26T13:29:27.534Z,100
2022-08-26T13:30:27.550Z,100
2022-08-26T13:31:27.662Z,100
2022-08-26T13:32:27.932Z,100
2022-08-26T13:33:27.680Z,100
2022-08-26T13:34:27.642Z,99.6
2022-08-26T13:35:27.666Z,100
2022-08-26T13:36:27.756Z,100
2022-08-26T13:37:35.067Z,100
2022-08-26T13:38:33.671Z,100
2022-08-26T13:39:27.538Z,100
2022-08-26T13:40:30.255Z,99.7
2022-08-26T13:41:29.213Z,98.6
2022-08-26T13:42:27.533Z,98.7
2022-08-26T13:43:27.528Z,98.5